Time;durP1;ratioP1;P1;durP2;ratioP2;P2;SDS_P1;SDS_P2;PMS_P1;PMS_P2;Temp;Humidity;BMP_temperature;BMP_pressure;BME280_temperature;BME280_humidity;BME280_pressure;Samples;Min_cycle;Max_cycle;Signal;HPM_P1;HPM_P2
2021/03/19 14:19:10;;;;;;;8.80;6.17;;;;;;;4.87;64.73;100241.79;1837621;75;22761;-47
2021/03/19 14:21:39;;;;;;;13.10;7.28;;;;;;;4.69;64.81;100244.20;1810016;78;21227;-46
2021/03/19 14:26:46;;;;;;;12.40;8.33;;;;;;;4.31;66.22;100249.93;1827808;76;23206;-47
2021/03/19 14:29:14;;;;;;;10.50;6.72;;;;;;;4.12;67.31;100252.33;1721653;81;21216;-47
2021/03/19 14:31:43;;;;;;;10.60;6.58;;;;;;;3.99;68.42;100254.34;1734844;81;23443;-48
2021/03/19 14:34:11;;;;;;;9.63;6.60;;;;;;;3.89;69.06;100259.72;1738930;80;21264;-47
2021/03/19 14:36:40;;;;;;;14.25;7.45;;;;;;;3.79;69.62;100256.76;1729779;81;22493;-47
2021/03/19 14:39:10;;;;;;;8.20;5.60;;;;;;;3.72;70.26;100254.58;1730803;80;21671;-47
2021/03/19 14:41:38;;;;;;;8.05;5.78;;;;;;;3.65;70.74;100261.95;1735339;80;22119;-47
2021/03/19 14:44:08;;;;;;;8.95;6.30;;;;;;;3.62;71.21;100258.19;1741372;81;21952;-47
2021/03/19 14:46:38;;;;;;;4.97;3.90;;;;;;;3.60;71.46;100256.12;1722794;80;21722;-46
2021/03/19 14:49:08;;;;;;;10.08;6.67;;;;;;;3.57;71.48;100259.73;1738575;80;21411;-46
2021/03/19 14:51:38;;;;;;;7.83;5.37;;;;;;;3.54;71.74;100262.07;1741083;81;20988;-46
2021/03/19 14:54:17;;;;;;;8.23;4.92;;;;;;;3.58;71.93;100257.50;1850128;76;22516;-47
2021/03/19 14:56:47;;;;;;;5.22;3.65;;;;;;;3.55;71.83;100262.90;1809927;77;21169;-47
2021/03/19 14:59:17;;;;;;;;;;;;;;;3.52;71.72;100261.76;1815062;77;22061;-47
2021/03/19 15:01:47;;;;;;;9.00;5.53;;;;;;;3.49;71.71;100258.00;1808782;77;20192;-48
2021/03/19 15:04:15;;;;;;;10.60;5.10;;;;;;;3.42;71.65;100267.97;1817272;77;21035;-47
2021/03/19 15:06:45;;;;;;;9.20;4.47;;;;;;;3.35;71.81;100263.52;1809004;77;22226;-47
2021/03/19 15:09:13;;;;;;;10.65;6.00;;;;;;;3.33;71.93;100273.70;1810911;77;21637;-46
2021/03/19 15:11:44;;;;;;;8.63;5.87;;;;;;;3.28;72.17;100275.72;1812903;77;21443;-47
2021/03/19 15:14:12;;;;;;;7.78;5.28;;;;;;;3.24;72.25;100281.11;1815188;77;21543;-48
2021/03/19 15:16:42;;;;;;;12.37;6.67;;;;;;;3.20;72.41;100276.97;1818795;77;21904;-47
2021/03/19 15:19:10;;;;;;;10.38;6.15;;;;;;;3.17;72.60;100279.75;1815848;77;21153;-48
2021/03/19 15:21:40;;;;;;;11.33;5.80;;;;;;;3.13;72.91;100286.55;1827786;77;22090;-47
2021/03/19 15:24:10;;;;;;;7.35;4.60;;;;;;;3.09;73.10;100284.09;1815573;77;21359;-51
2021/03/19 15:26:39;;;;;;;8.95;5.47;;;;;;;3.10;73.30;100287.09;1826487;77;21601;-47
2021/03/19 15:29:08;;;;;;;12.18;6.17;;;;;;;3.09;73.34;100286.70;1776860;80;21185;-47
2021/03/19 15:31:36;;;;;;;9.78;5.62;;;;;;;3.08;73.36;100286.33;1756643;80;21114;-47
2021/03/19 15:34:04;;;;;;;7.87;4.40;;;;;;;3.08;73.41;100288.08;1767135;79;22065;-47
2021/03/19 15:36:32;;;;;;;8.35;4.97;;;;;;;3.06;73.35;100290.79;1750924;80;21966;-47
2021/03/19 15:39:00;;;;;;;7.40;4.45;;;;;;;3.04;73.27;100296.56;1749116;79;20991;-48
2021/03/19 15:41:28;;;;;;;6.50;4.55;;;;;;;3.01;73.22;100297.17;1748865;79;21157;-47
2021/03/19 15:43:56;;;;;;;8.70;4.42;;;;;;;2.99;73.33;100302.50;1782842;78;21122;-49
2021/03/19 15:46:24;;;;;;;7.30;4.35;;;;;;;2.97;73.53;100299.56;1782423;78;21927;-48
2021/03/19 15:48:53;;;;;;;8.53;5.05;;;;;;;2.97;73.58;100304.80;1782667;78;21917;-47
2021/03/19 15:51:22;;;;;;;9.00;5.30;;;;;;;2.95;73.66;100300.48;1777422;78;21605;-48
2021/03/19 15:53:50;;;;;;;9.55;6.33;;;;;;;3.01;73.93;100304.57;1779916;78;21622;-47
2021/03/19 15:56:18;;;;;;;9.53;5.80;;;;;;;3.09;73.88;100302.41;1784908;78;21550;-48
2021/03/19 15:58:46;;;;;;;13.88;8.18;;;;;;;3.16;73.68;100309.92;1786614;78;21418;-47
2021/03/19 16:01:14;;;;;;;11.15;6.90;;;;;;;3.21;73.43;100305.27;1784316;78;22668;-48
2021/03/19 16:03:43;;;;;;;10.63;6.33;;;;;;;3.25;73.18;100317.26;1782877;78;21149;-48
2021/03/19 16:06:12;;;;;;;10.58;6.20;;;;;;;3.27;73.10;100320.64;1784132;78;21505;-47
2021/03/19 16:08:40;;;;;;;11.20;6.53;;;;;;;3.16;73.56;100321.70;1779179;78;22529;-47
2021/03/19 16:11:11;;;;;;;9.40;5.80;;;;;;;2.97;74.16;100323.95;1785867;78;21536;-48
2021/03/19 16:13:46;;;;;;;13.35;7.80;;;;;;;2.79;74.65;100320.50;1780183;78;21480;-48
2021/03/19 16:16:10;;;;;;;23.18;14.03;;;;;;;2.70;75.09;100321.82;1784952;78;21504;-46
2021/03/19 16:18:39;;;;;;;15.43;9.33;;;;;;;2.62;75.50;100320.05;1781727;78;21726;-46
2021/03/19 16:21:13;;;;;;;11.55;6.90;;;;;;;2.53;75.90;100321.81;1781789;78;21224;-46
2021/03/19 16:23:40;;;;;;;10.35;6.53;;;;;;;2.40;76.82;100329.42;1766560;80;21189;-46
2021/03/19 16:26:13;;;;;;;10.53;6.30;;;;;;;2.23;77.58;100330.23;1760186;80;22040;-46
2021/03/19 16:28:42;;;;;;;10.35;6.65;;;;;;;2.05;78.39;100332.83;1770467;80;21201;-46
2021/03/19 16:31:13;;;;;;;9.25;6.03;;;;;;;1.90;79.08;100333.08;1756593;80;21137;-46
2021/03/19 16:33:43;;;;;;;13.13;7.20;;;;;;;1.79;79.82;100340.12;1760907;80;21442;-46
2021/03/19 16:36:13;;;;;;;25.25;10.80;;;;;;;1.68;80.36;100343.20;1763520;80;20971;-46
2021/03/19 16:38:44;;;;;;;33.23;15.40;;;;;;;1.64;80.80;100342.13;1756829;80;21569;-46
2021/03/19 16:41:15;;;;;;;14.38;8.93;;;;;;;1.66;81.21;100341.59;1792737;78;21161;-46
2021/03/19 16:43:44;;;;;;;12.37;8.08;;;;;;;1.76;81.26;100336.34;1788972;78;21957;-46
2021/03/19 16:46:13;;;;;;;11.38;7.47;;;;;;;1.86;81.25;100339.36;1782311;80;20940;-46
2021/03/19 16:48:42;;;;;;;12.88;7.28;;;;;;;1.93;80.86;100341.24;1786890;78;20999;-46
2021/03/19 16:51:12;;;;;;;13.18;8.28;;;;;;;1.97;80.83;100337.57;1782406;78;21449;-46
2021/03/19 16:53:41;;;;;;;11.40;7.15;;;;;;;2.03;80.77;100342.50;1768464;80;21611;-46
2021/03/19 16:56:10;;;;;;;15.70;8.75;;;;;;;2.11;80.57;100346.91;1759133;80;21128;-46
2021/03/19 16:58:39;;;;;;;28.30;11.75;;;;;;;2.11;80.05;100341.68;1746441;81;20976;-46
2021/03/19 17:01:07;;;;;;;14.13;7.55;;;;;;;1.95;79.91;100349.84;1741172;80;21860;-46
2021/03/19 17:03:36;;;;;;;16.00;7.15;;;;;;;1.81;80.22;100344.81;1746883;81;21340;-46
2021/03/19 17:06:05;;;;;;;13.22;6.58;;;;;;;1.71;80.79;100350.06;1766980;80;21625;-46
2021/03/19 17:08:34;;;;;;;14.78;7.28;;;;;;;1.61;81.24;100355.70;1736154;80;21887;-47
2021/03/19 17:11:02;;;;;;;18.77;8.13;;;;;;;1.57;81.52;100351.53;1763690;80;21910;-47
2021/03/19 17:13:30;;;;;;;21.97;9.65;;;;;;;1.55;81.80;100352.06;1739249;81;21431;-46
2021/03/19 17:15:58;;;;;;;22.60;11.93;;;;;;;1.52;81.96;100351.37;1759232;80;22069;-46
2021/03/19 17:18:26;;;;;;;24.82;13.28;;;;;;;1.52;82.08;100353.50;1737983;80;21710;-47
2021/03/19 17:20:55;;;;;;;20.30;12.10;;;;;;;1.48;82.32;100349.34;1762879;80;21149;-47
2021/03/19 17:23:23;;;;;;;25.62;13.58;;;;;;;1.44;82.56;100347.78;1757784;80;21452;-48
2021/03/19 17:25:52;;;;;;;23.52;12.80;;;;;;;1.41;82.80;100351.83;1760317;80;21723;-47
2021/03/19 17:28:23;;;;;;;23.57;14.60;;;;;;;1.38;82.96;100358.48;1760150;78;21379;-47
2021/03/19 17:30:51;;;;;;;27.58;19.05;;;;;;;1.43;83.12;100351.30;1720062;82;21197;-47
2021/03/19 17:33:23;;;;;;;27.30;17.45;;;;;;;1.56;83.17;100354.23;1764559;80;21130;-48
2021/03/19 17:35:51;;;;;;;30.48;19.07;;;;;;;1.71;83.01;100352.20;1765446;80;21121;-47
2021/03/19 17:38:19;;;;;;;30.55;19.42;;;;;;;1.85;82.61;100355.49;1746373;80;22070;-47
2021/03/19 17:40:49;;;;;;;43.38;23.22;;;;;;;1.98;82.09;100351.02;1748486;81;21398;-47
2021/03/19 17:43:17;;;;;;;14.93;10.05;;;;;;;2.09;81.86;100344.82;1767495;80;21121;-47
2021/03/19 17:45:49;;;;;;;13.28;9.08;;;;;;;2.21;81.56;100345.98;1759889;80;21661;-48
2021/03/19 17:48:19;;;;;;;15.58;9.40;;;;;;;2.29;81.13;100345.61;1747762;80;21122;-47
2021/03/19 17:50:48;;;;;;;12.80;8.48;;;;;;;2.23;80.21;100345.90;1763383;80;21409;-47
2021/03/19 17:53:19;;;;;;;14.00;8.38;;;;;;;2.15;79.90;100348.42;1747784;80;21617;-47
2021/03/19 17:55:47;;;;;;;13.15;7.92;;;;;;;2.01;79.52;100356.92;1764058;80;21166;-47
2021/03/19 17:58:16;;;;;;;9.88;6.45;;;;;;;1.83;79.52;100360.38;1759764;80;21134;-47
2021/03/19 18:00:45;;;;;;;10.03;6.45;;;;;;;1.67;79.79;100351.12;1770116;80;21150;-47
2021/03/19 18:03:14;;;;;;;8.55;5.87;;;;;;;1.55;80.08;100350.76;1761627;80;20979;-47
2021/03/19 18:05:46;;;;;;;8.95;5.83;;;;;;;1.45;80.43;100354.25;1759514;80;26867;-47
2021/03/19 18:08:15;;;;;;;9.15;5.65;;;;;;;1.40;80.83;100348.83;1763314;80;21139;-47
2021/03/19 18:10:43;;;;;;;10.50;5.70;;;;;;;1.42;81.48;100358.30;1765204;80;21835;-47
2021/03/19 18:13:17;;;;;;;8.78;5.12;;;;;;;1.53;82.00;100351.28;1758541;80;21145;-48
2021/03/19 18:15:47;;;;;;;8.88;5.80;;;;;;;1.67;81.87;100351.95;1749746;80;21089;-47
2021/03/19 18:18:17;;;;;;;9.08;5.75;;;;;;;1.76;81.20;100350.70;1752429;80;21397;-47
2021/03/19 18:20:45;;;;;;;9.33;5.80;;;;;;;1.83;80.69;100348.64;1746511;80;21161;-47
2021/03/19 18:23:21;;;;;;;9.08;5.83;;;;;;;1.87;80.24;100351.49;1751911;79;20997;-47
2021/03/19 18:25:50;;;;;;;9.15;5.83;;;;;;;1.87;79.90;100349.74;1778928;78;21122;-48
2021/03/19 18:28:20;;;;;;;12.28;5.80;;;;;;;1.84;79.65;100350.33;1753961;79;21397;-47
2021/03/19 18:30:50;;;;;;;17.55;8.90;;;;;;;1.70;79.63;100347.06;1777359;80;21761;-48
2021/03/19 18:33:19;;;;;;;57.10;20.23;;;;;;;1.54;79.96;100347.77;1767747;80;21302;-47
2021/03/19 18:35:49;;;;;;;55.45;22.35;;;;;;;1.42;80.45;100349.61;1763626;80;21855;-47
2021/03/19 18:38:18;;;;;;;48.00;23.53;;;;;;;1.33;80.86;100344.36;1775072;80;21149;-48
2021/03/19 18:40:48;;;;;;;44.18;25.43;;;;;;;1.25;81.21;100348.59;1767813;80;21148;-47
2021/03/19 18:43:16;;;;;;;42.65;23.40;;;;;;;1.21;81.58;100355.33;1761387;80;21261;-47
2021/03/19 18:45:46;;;;;;;36.65;20.82;;;;;;;1.18;81.94;100353.25;1767847;79;21408;-47
2021/03/19 18:48:15;;;;;;;35.43;21.37;;;;;;;1.16;82.24;100351.60;1779445;80;21134;-47
2021/03/19 18:50:46;;;;;;;30.00;19.12;;;;;;;1.27;83.04;100353.29;1763880;80;21129;-47
2021/03/19 18:53:15;;;;;;;42.93;21.80;;;;;;;1.45;83.38;100356.00;1755567;80;21161;-47
2021/03/19 18:55:45;;;;;;;48.52;21.68;;;;;;;1.62;82.97;100368.27;1755348;80;21402;-47
2021/03/19 18:58:19;;;;;;;34.98;17.92;;;;;;;1.79;82.72;100370.58;1759089;80;21149;-47
2021/03/19 19:00:50;;;;;;;18.57;10.40;;;;;;;1.91;82.30;100367.41;1748246;79;21736;-47
2021/03/19 19:03:20;;;;;;;27.05;13.85;;;;;;;2.00;81.80;100365.67;1763858;80;21121;-47
2021/03/19 19:05:49;;;;;;;35.25;15.48;;;;;;;2.03;81.15;100369.92;1756118;80;21118;-47
2021/03/19 19:08:19;;;;;;;33.55;15.85;;;;;;;1.96;80.27;100370.64;1782719;78;21376;-47
2021/03/19 19:10:49;;;;;;;37.63;16.48;;;;;;;1.80;80.08;100373.57;1781839;78;21537;-47
2021/03/19 19:13:17;;;;;;;35.43;16.35;;;;;;;1.65;80.27;100379.05;1757442;79;21546;-47
2021/03/19 19:15:47;;;;;;;43.95;17.65;;;;;;;1.52;80.58;100374.38;1783927;79;21113;-47
2021/03/19 19:18:21;;;;;;;37.73;16.15;;;;;;;1.41;81.00;100384.00;1746306;80;21125;-47
2021/03/19 19:20:55;;;;;;;35.80;16.65;;;;;;;1.30;81.51;100381.01;1760129;79;21170;-47
2021/03/19 19:23:24;;;;;;;25.72;14.03;;;;;;;1.21;81.98;100386.15;1761871;79;21145;-47
2021/03/19 19:25:54;;;;;;;23.38;14.25;;;;;;;1.13;82.41;100381.72;1762872;78;21441;-50
2021/03/19 19:28:26;;;;;;;28.80;15.25;;;;;;;1.09;82.99;100384.93;1759856;78;22042;-47
2021/03/19 19:30:55;;;;;;;33.18;18.32;;;;;;;1.18;83.53;100383.67;1757649;79;21423;-47
2021/03/19 19:33:23;;;;;;;49.45;20.70;;;;;;;1.36;83.89;100394.22;1750207;80;21444;-47
2021/03/19 19:35:51;;;;;;;51.50;25.15;;;;;;;1.51;83.95;100401.38;1764213;79;21031;-47
2021/03/19 19:38:23;;;;;;;56.48;27.15;;;;;;;1.65;83.87;100394.70;1761501;80;21247;-47
2021/03/19 19:40:55;;;;;;;50.08;27.65;;;;;;;1.78;83.63;100395.84;1760958;79;20987;-47
2021/03/19 19:43:25;;;;;;;41.92;21.65;;;;;;;1.88;83.09;100396.25;1758970;80;21440;-47
2021/03/19 19:45:53;;;;;;;31.48;17.90;;;;;;;1.96;82.40;100400.67;1762995;79;21535;-47
2021/03/19 19:48:24;;;;;;;41.53;24.82;;;;;;;1.93;81.63;100398.67;1728065;80;21160;-48
2021/03/19 19:50:55;;;;;;;31.55;19.82;;;;;;;1.84;81.22;100394.70;1758197;80;21169;-47
2021/03/19 19:53:25;;;;;;;31.42;18.60;;;;;;;1.75;81.11;100397.28;1762634;80;21495;-47
2021/03/19 19:55:54;;;;;;;33.90;21.23;;;;;;;1.65;81.04;100400.75;1766087;80;21523;-47
2021/03/19 19:58:26;;;;;;;31.42;17.15;;;;;;;1.56;81.06;100392.89;1766633;80;21879;-47
2021/03/19 20:00:56;;;;;;;33.20;19.45;;;;;;;1.47;81.14;100390.25;1761053;80;21117;-47
2021/03/19 20:03:24;;;;;;;32.93;18.15;;;;;;;1.42;81.26;100398.73;1762315;80;21549;-48
2021/03/19 20:05:52;;;;;;;36.83;19.52;;;;;;;1.37;81.31;100394.17;1764276;80;22085;-47
2021/03/19 20:08:23;;;;;;;38.08;21.57;;;;;;;1.34;81.43;100393.00;1761143;80;21160;-47
2021/03/19 20:10:56;;;;;;;42.85;24.52;;;;;;;1.31;81.59;100399.66;1764691;80;21153;-47
2021/03/19 20:13:25;;;;;;;50.40;27.30;;;;;;;1.27;81.71;100402.84;1773343;79;21508;-47
2021/03/19 20:15:53;;;;;;;50.17;29.23;;;;;;;1.25;81.81;100405.97;1763833;80;21505;-47
2021/03/19 20:18:28;;;;;;;47.65;26.87;;;;;;;1.24;81.97;100404.74;1759589;80;22026;-47
2021/03/19 20:21:02;;;;;;;45.55;26.27;;;;;;;1.31;82.53;100403.56;1749706;80;21114;-47
2021/03/19 20:23:30;;;;;;;38.20;23.70;;;;;;;1.45;82.65;100400.34;1749465;80;21599;-48
2021/03/19 20:25:58;;;;;;;38.17;22.45;;;;;;;1.61;82.56;100404.41;1794177;78;21169;-47
2021/03/19 20:28:30;;;;;;;33.95;20.72;;;;;;;1.76;82.34;100406.81;1766594;80;21438;-47
2021/03/19 20:30:59;;;;;;;31.45;19.20;;;;;;;1.86;81.77;100410.70;1760587;80;21137;-47
2021/03/19 20:33:27;;;;;;;28.62;18.30;;;;;;;1.95;81.44;100409.89;1756643;80;21740;-47
2021/03/19 20:35:57;;;;;;;31.55;19.48;;;;;;;2.00;80.85;100408.75;1757139;80;21669;-47
2021/03/19 20:38:25;;;;;;;34.55;20.40;;;;;;;2.04;80.34;100412.08;1755869;80;21150;-47
2021/03/19 20:40:53;;;;;;;32.38;20.95;;;;;;;1.97;79.97;100413.28;1763311;80;21157;-47
2021/03/19 20:43:22;;;;;;;30.37;19.15;;;;;;;1.85;79.99;100409.45;1755948;80;21117;-47
2021/03/19 20:45:51;;;;;;;32.73;20.30;;;;;;;1.75;80.08;100405.95;1755433;80;21138;-47
2021/03/19 20:48:26;;;;;;;32.60;19.02;;;;;;;1.68;80.22;100412.36;1759030;80;21843;-47
2021/03/19 20:50:58;;;;;;;35.45;18.62;;;;;;;1.61;80.27;100413.10;1779574;79;21126;-47
2021/03/19 20:53:30;;;;;;;30.17;18.42;;;;;;;1.55;80.47;100418.59;1746963;80;21153;-47
2021/03/19 20:55:59;;;;;;;;;;;;;;;1.50;80.57;100413.20;1767737;80;21018;-47
2021/03/19 20:58:29;;;;;;;30.25;17.12;;;;;;;1.46;80.77;100417.69;1766699;80;20257;-47
2021/03/19 21:01:03;;;;;;;32.08;18.00;;;;;;;1.42;81.02;100414.82;1755619;80;21184;-47
2021/03/19 21:03:39;;;;;;;32.48;20.35;;;;;;;1.39;81.11;100414.52;1765715;79;21625;-47
2021/03/19 21:06:34;;;;;;;34.13;18.73;;;;;;;1.36;81.22;100417.70;1777430;79;21620;-47
2021/03/19 21:09:14;;;;;;;45.75;24.98;;;;;;;1.31;81.42;100420.05;1768354;78;21138;-47
2021/03/19 21:11:45;;;;;;;62.23;32.67;;;;;;;1.33;81.83;100416.08;1756677;80;21534;-47
2021/03/19 21:14:13;;;;;;;65.20;35.63;;;;;;;1.41;81.94;100420.52;1763789;79;22731;-47
2021/03/19 21:16:41;;;;;;;67.78;36.65;;;;;;;1.51;81.97;100421.42;1754759;80;21527;-47
2021/03/19 21:19:13;;;;;;;69.10;34.95;;;;;;;1.63;82.00;100423.45;1760556;79;21141;-47
2021/03/19 21:21:41;;;;;;;65.12;36.10;;;;;;;1.73;81.94;100422.12;1781839;79;22077;-47
2021/03/19 21:24:10;;;;;;;65.62;35.43;;;;;;;1.83;81.71;100421.72;1764482;80;21126;-47
2021/03/19 21:26:39;;;;;;;74.92;35.78;;;;;;;1.93;81.33;100422.17;1755065;80;21198;-47
2021/03/19 21:29:07;;;;;;;66.85;35.95;;;;;;;2.00;81.15;100418.36;1761426;80;21135;-47
2021/03/19 21:31:35;;;;;;;66.55;35.03;;;;;;;2.03;80.64;100422.97;1756469;80;21162;-47
2021/03/19 21:34:04;;;;;;;73.50;37.85;;;;;;;1.97;80.22;100422.42;1772994;79;21131;-47
2021/03/19 21:36:35;;;;;;;67.78;34.92;;;;;;;1.85;80.16;100423.80;1766262;79;21126;-47
2021/03/19 21:39:04;;;;;;;84.30;46.73;;;;;;;1.75;80.31;100421.61;1762043;79;22274;-48
2021/03/19 21:41:32;;;;;;;137.70;74.30;;;;;;;1.67;80.54;100421.58;1762600;79;22084;-47
2021/03/19 21:44:00;;;;;;;177.55;94.65;;;;;;;1.59;80.81;100420.63;1778795;79;21133;-47
2021/03/19 21:46:28;;;;;;;179.95;92.12;;;;;;;1.55;81.06;100422.50;1769164;79;21146;-47
2021/03/19 21:48:57;;;;;;;196.00;97.78;;;;;;;1.50;81.24;100423.16;1745966;80;21558;-47
2021/03/19 21:51:27;;;;;;;175.57;79.45;;;;;;;1.48;81.47;100415.86;1760716;80;21194;-47
2021/03/19 21:53:57;;;;;;;122.30;57.43;;;;;;;1.45;81.63;100425.12;1760187;80;21122;-47
2021/03/19 21:56:26;;;;;;;79.20;39.38;;;;;;;1.45;81.81;100425.12;1758298;80;21538;-47
2021/03/19 22:01:39;;;;;;;58.33;29.75;;;;;;;1.45;82.06;100426.43;1808377;75;22858;-47
2021/03/19 22:04:07;;;;;;;53.15;29.10;;;;;;;1.51;82.21;100430.55;1786727;77;21236;-47
2021/03/19 22:06:36;;;;;;;46.63;26.70;;;;;;;1.59;82.16;100428.45;1778418;78;22209;-47
2021/03/19 22:09:06;;;;;;;53.83;28.32;;;;;;;1.71;82.22;100427.05;1769350;78;21070;-47
2021/03/19 22:11:35;;;;;;;37.33;22.80;;;;;;;1.82;82.23;100430.02;1775025;78;21509;-47
2021/03/19 22:14:03;;;;;;;39.80;19.48;;;;;;;1.97;82.12;100428.47;1769308;79;21161;-47
2021/03/19 22:16:32;;;;;;;38.13;19.77;;;;;;;2.11;81.91;100430.91;1774469;78;20979;-48
2021/03/19 22:19:01;;;;;;;32.20;16.48;;;;;;;2.19;81.28;100427.01;1778609;78;21718;-47
2021/03/19 22:21:33;;;;;;;33.35;18.45;;;;;;;2.21;80.48;100438.23;1775134;78;21026;-47
2021/03/19 22:24:04;;;;;;;38.20;19.80;;;;;;;2.12;80.02;100435.21;1769848;78;21377;-47
2021/03/19 22:26:34;;;;;;;35.85;19.92;;;;;;;1.99;79.92;100433.64;1770834;79;20983;-47
2021/03/19 22:29:03;;;;;;;34.03;19.90;;;;;;;1.90;79.97;100428.36;1775536;80;21141;-47
2021/03/19 22:31:31;;;;;;;30.90;18.75;;;;;;;1.81;80.04;100432.69;1770334;78;22269;-47
2021/03/19 22:33:59;;;;;;;36.83;20.32;;;;;;;1.71;80.16;100427.88;1773469;78;21207;-47
2021/03/19 22:36:28;;;;;;;34.05;19.52;;;;;;;1.64;80.36;100436.06;1778784;78;21112;-47
2021/03/19 22:38:58;;;;;;;33.20;19.52;;;;;;;1.58;80.50;100437.19;1770344;78;21108;-47
2021/03/19 22:41:28;;;;;;;34.08;19.60;;;;;;;1.51;80.63;100433.98;1773791;79;21608;-47
2021/03/19 22:43:57;;;;;;;39.78;21.85;;;;;;;1.45;80.76;100438.17;1767523;78;21974;-47
2021/03/19 22:46:29;;;;;;;37.35;21.15;;;;;;;1.39;80.88;100435.38;1776391;79;21379;-47
2021/03/19 22:48:57;;;;;;;;;;;;;;;1.36;81.04;100434.65;1739718;80;21017;-47
2021/03/19 22:51:25;;;;;;;37.67;21.33;;;;;;;1.32;81.16;100432.64;1748597;80;20277;-47
2021/03/19 22:53:54;;;;;;;36.10;21.30;;;;;;;1.31;81.53;100432.25;1774361;79;21136;-47
2021/03/19 22:56:33;;;;;;;35.50;20.48;;;;;;;1.45;81.75;100438.17;1823763;75;22257;-48
2021/03/19 22:59:02;;;;;;;34.13;20.25;;;;;;;1.55;81.96;100435.55;1792724;77;21584;-47
2021/03/19 23:01:37;;;;;;;38.83;23.38;;;;;;;1.68;81.68;100438.92;1792641;77;21212;-46
2021/03/19 23:04:06;;;;;;;43.17;25.35;;;;;;;1.78;81.32;100436.30;1814862;77;20959;-46
2021/03/19 23:06:34;;;;;;;42.00;25.60;;;;;;;1.84;80.69;100437.33;1793513;78;21503;-46
2021/03/19 23:09:05;;;;;;;44.95;26.02;;;;;;;1.87;80.15;100441.55;1797576;78;20963;-46
2021/03/19 23:11:34;;;;;;;47.70;26.30;;;;;;;1.88;80.14;100440.19;1780154;78;21289;-46
2021/03/19 23:14:05;;;;;;;44.40;23.12;;;;;;;1.92;80.05;100443.49;1779796;78;21153;-46
2021/03/19 23:16:40;;;;;;;37.20;21.77;;;;;;;1.91;79.60;100443.97;1760940;78;21538;-46
2021/03/19 23:19:10;;;;;;;40.58;23.25;;;;;;;1.81;79.09;100441.38;1779991;78;21971;-46
2021/03/19 23:21:42;;;;;;;43.52;24.98;;;;;;;1.68;79.08;100433.70;1779823;78;21165;-46
2021/03/19 23:24:13;;;;;;;43.33;23.95;;;;;;;1.55;79.28;100442.55;1778940;78;21102;-46
2021/03/19 23:26:45;;;;;;;45.28;26.00;;;;;;;1.39;79.53;100443.20;1745393;79;21415;-45
2021/03/19 23:29:21;;;;;;;58.40;31.42;;;;;;;1.28;79.96;100434.52;1791429;78;21929;-45
2021/03/19 23:31:49;;;;;;;54.27;30.80;;;;;;;1.26;80.47;100442.03;1779273;78;21577;-45
2021/03/19 23:34:17;;;;;;;55.70;30.68;;;;;;;1.32;80.93;100443.91;1791206;78;21492;-46
2021/03/19 23:36:45;;;;;;;56.92;31.35;;;;;;;1.40;80.87;100449.25;1780144;78;22144;-45
2021/03/19 23:39:15;;;;;;;60.08;32.90;;;;;;;1.44;80.76;100442.99;1791244;78;21909;-46
2021/03/19 23:41:43;;;;;;;62.88;34.48;;;;;;;1.50;80.62;100445.34;1779852;78;21137;-46
2021/03/19 23:44:12;;;;;;;64.10;32.42;;;;;;;1.55;80.56;100446.45;1787598;78;21137;-46
2021/03/19 23:46:41;;;;;;;53.13;28.62;;;;;;;1.61;80.78;100449.63;1772606;79;21152;-46
2021/03/19 23:49:18;;;;;;;52.25;26.12;;;;;;;1.72;80.87;100452.23;1784059;79;21117;-46
2021/03/19 23:51:46;;;;;;;47.53;24.55;;;;;;;1.70;80.00;100447.53;1755657;79;21612;-46
2021/03/19 23:54:14;;;;;;;51.13;25.85;;;;;;;1.61;79.56;100456.16;1789121;78;21605;-46
2021/03/19 23:56:43;;;;;;;48.38;28.87;;;;;;;1.50;79.47;100451.86;1786156;78;21904;-46
2021/03/19 23:59:13;;;;;;;64.90;40.12;;;;;;;1.38;79.53;100446.73;1786999;78;21878;-46
